Time;durP1;ratioP1;P1;durP2;ratioP2;P2;SDS_P1;SDS_P2;PMS_P1;PMS_P2;Temp;Humidity;BMP_temperature;BMP_pressure;BME280_temperature;BME280_humidity;BME280_pressure;Samples;Min_cycle;Max_cycle;Signal;HPM_P1;HPM_P2
2021/10/11 00:00:14;;;;;;;19.70;13.13;;;6.10;99.90;;;;;;6241697;23;20011;-75
2021/10/11 00:02:40;;;;;;;23.73;12.50;;;6.10;99.90;;;;;;6241594;23;20004;-75
2021/10/11 00:05:07;;;;;;;23.17;13.18;;;6.10;99.90;;;;;;6242353;23;20014;-75
2021/10/11 00:07:32;;;;;;;19.80;13.50;;;6.10;99.90;;;;;;6241044;23;20000;-78
2021/10/11 00:09:58;;;;;;;17.80;12.18;;;6.10;99.90;;;;;;6242082;23;20041;-78
2021/10/11 00:12:24;;;;;;;16.92;11.55;;;6.10;99.90;;;;;;6240945;23;20004;-76
2021/10/11 00:14:52;;;;;;;22.13;13.55;;;6.10;99.90;;;;;;6241799;22;20007;-78
2021/10/11 00:17:17;;;;;;;21.13;12.85;;;6.10;99.90;;;;;;6242478;23;20010;-76
2021/10/11 00:19:43;;;;;;;17.63;11.40;;;6.10;99.90;;;;;;6240794;23;20075;-77
2021/10/11 00:22:09;;;;;;;20.02;12.55;;;6.10;99.90;;;;;;6241969;22;20058;-76
2021/10/11 00:24:34;;;;;;;23.83;13.10;;;6.10;99.90;;;;;;6239353;23;20061;-78
2021/10/11 00:27:00;;;;;;;18.60;12.07;;;6.10;99.90;;;;;;6240870;23;20389;-80
2021/10/11 00:29:25;;;;;;;20.95;12.70;;;6.10;99.90;;;;;;6241408;23;20084;-79
2021/10/11 00:31:51;;;;;;;20.13;12.52;;;6.20;99.90;;;;;;6240915;23;20003;-79
2021/10/11 00:34:17;;;;;;;14.30;10.65;;;6.20;99.90;;;;;;6240450;23;20012;-78
2021/10/11 00:36:42;;;;;;;16.08;11.40;;;6.20;99.90;;;;;;6242429;23;20005;-78
2021/10/11 00:39:07;;;;;;;21.38;12.32;;;6.20;99.90;;;;;;6241177;23;20034;-77
2021/10/11 00:41:33;;;;;;;21.77;12.40;;;6.20;99.90;;;;;;6241506;23;20012;-76
2021/10/11 00:44:00;;;;;;;20.40;13.18;;;6.20;99.90;;;;;;6242493;23;20004;-77
2021/10/11 00:46:25;;;;;;;19.88;11.65;;;6.20;99.90;;;;;;6240618;23;19996;-78
2021/10/11 00:48:51;;;;;;;18.27;11.63;;;6.20;99.90;;;;;;6241792;23;20008;-77
2021/10/11 00:51:17;;;;;;;17.80;11.23;;;6.30;99.90;;;;;;6241529;23;20004;-77
2021/10/11 00:53:43;;;;;;;18.08;11.18;;;6.30;99.90;;;;;;6242156;23;20015;-78
2021/10/11 00:56:09;;;;;;;16.13;11.57;;;6.30;99.90;;;;;;6241530;23;20085;-78
2021/10/11 00:58:34;;;;;;;17.67;11.20;;;6.30;99.90;;;;;;6240563;23;19996;-75
2021/10/11 01:01:00;;;;;;;16.67;10.63;;;6.30;99.90;;;;;;6241936;23;20071;-77
2021/10/11 01:03:26;;;;;;;17.92;11.90;;;6.30;99.90;;;;;;6266099;22;20004;-78
2021/10/11 01:05:52;;;;;;;16.88;10.35;;;6.30;99.90;;;;;;6264595;22;20087;-76
2021/10/11 01:08:17;;;;;;;15.77;10.70;;;6.30;99.90;;;;;;6240932;23;20453;-75
2021/10/11 01:10:47;;;;;;;18.10;11.60;;;6.30;99.90;;;;;;6241673;23;20005;-77
2021/10/11 01:13:13;;;;;;;18.08;11.25;;;6.30;99.90;;;;;;6241406;23;20000;-76
2021/10/11 01:15:39;;;;;;;17.92;11.05;;;6.30;99.90;;;;;;6241939;23;20012;-77
2021/10/11 01:18:05;;;;;;;18.58;11.10;;;6.30;99.90;;;;;;6240766;23;20030;-77
2021/10/11 01:20:31;;;;;;;21.48;12.10;;;6.30;99.90;;;;;;6241833;23;19992;-75
2021/10/11 01:22:56;;;;;;;18.00;11.57;;;6.30;99.90;;;;;;6241001;23;20367;-76
2021/10/11 01:25:22;;;;;;;17.38;11.25;;;6.30;99.90;;;;;;6241188;23;19996;-75
2021/10/11 01:27:47;;;;;;;17.65;12.02;;;6.30;99.90;;;;;;6239809;23;20122;-77
2021/10/11 01:30:15;;;;;;;16.52;11.05;;;6.40;99.90;;;;;;6241302;23;20030;-76
2021/10/11 01:32:42;;;;;;;20.67;12.45;;;6.40;99.90;;;;;;6240771;22;20500;-74
2021/10/11 01:35:08;;;;;;;18.80;11.82;;;6.40;99.90;;;;;;6241091;23;20004;-75
2021/10/11 01:37:35;;;;;;;15.77;10.88;;;6.40;99.90;;;;;;6240675;22;20435;-75
2021/10/11 01:40:02;;;;;;;15.52;11.27;;;6.40;99.90;;;;;;6240347;23;20008;-76
2021/10/11 01:42:28;;;;;;;21.30;11.50;;;6.50;99.90;;;;;;6240701;23;20108;-77
2021/10/11 01:44:53;;;;;;;17.48;11.43;;;6.50;99.90;;;;;;6240791;23;20089;-77
2021/10/11 01:47:25;;;;;;;18.05;10.65;;;6.50;99.90;;;;;;6239589;23;20720;-75
2021/10/11 01:49:50;;;;;;;18.77;11.38;;;6.50;99.90;;;;;;6240938;23;20009;-75
2021/10/11 01:52:16;;;;;;;21.48;11.65;;;6.50;99.90;;;;;;6240817;23;20002;-76
2021/10/11 01:54:41;;;;;;;20.98;11.77;;;6.50;99.90;;;;;;6241885;23;20008;-77
2021/10/11 01:57:07;;;;;;;16.13;11.05;;;6.50;99.90;;;;;;6264766;22;20012;-78
2021/10/11 01:59:32;;;;;;;18.55;11.75;;;6.50;99.90;;;;;;6240450;23;20036;-76
2021/10/11 02:01:58;;;;;;;16.10;11.00;;;6.50;99.90;;;;;;6240806;23;20309;-76
2021/10/11 02:04:23;;;;;;;20.40;12.73;;;6.50;99.90;;;;;;6240104;23;20004;-77
2021/10/11 02:06:49;;;;;;;14.95;9.52;;;6.50;99.90;;;;;;6240886;23;20000;-78
2021/10/11 02:09:14;;;;;;;15.93;11.27;;;6.50;99.90;;;;;;6238482;23;20003;-77
2021/10/11 02:11:40;;;;;;;20.42;10.65;;;6.60;99.90;;;;;;6240021;23;20004;-76
2021/10/11 02:14:05;;;;;;;26.60;11.35;;;6.60;99.90;;;;;;6241863;23;20348;-77
2021/10/11 02:16:31;;;;;;;20.02;11.02;;;6.60;99.90;;;;;;6239422;23;20004;-78
2021/10/11 02:18:56;;;;;;;16.60;10.65;;;6.60;99.90;;;;;;6240160;23;20043;-76
2021/10/11 02:21:22;;;;;;;16.67;10.93;;;6.60;99.90;;;;;;6239697;23;20032;-76
2021/10/11 02:23:47;;;;;;;16.60;11.20;;;6.60;99.90;;;;;;6240693;23;20004;-76
2021/10/11 02:26:13;;;;;;;15.82;11.02;;;6.60;99.90;;;;;;6240894;23;20015;-76
2021/10/11 02:28:38;;;;;;;16.60;10.10;;;6.60;99.90;;;;;;6240665;23;20012;-76
2021/10/11 02:31:04;;;;;;;15.23;10.40;;;6.60;99.90;;;;;;6240188;23;20008;-76
2021/10/11 02:33:29;;;;;;;16.27;10.52;;;6.60;99.90;;;;;;6240897;23;20000;-77
2021/10/11 02:35:55;;;;;;;18.15;10.85;;;6.60;99.90;;;;;;6264934;22;20008;-79
2021/10/11 02:38:20;;;;;;;15.75;10.50;;;6.60;99.90;;;;;;6239767;23;20407;-75
2021/10/11 02:40:46;;;;;;;17.95;11.32;;;6.60;99.90;;;;;;6240865;23;20016;-74
2021/10/11 02:43:11;;;;;;;15.93;9.57;;;6.60;99.90;;;;;;6240399;23;20000;-77
2021/10/11 02:45:37;;;;;;;21.35;12.43;;;6.60;99.90;;;;;;6241478;23;20003;-78
2021/10/11 02:48:04;;;;;;;16.98;10.13;;;6.60;99.90;;;;;;6240148;23;20561;-78
2021/10/11 02:50:29;;;;;;;15.88;10.90;;;6.60;99.90;;;;;;6240819;23;20379;-76
2021/10/11 02:52:55;;;;;;;16.27;10.32;;;6.60;99.90;;;;;;6240253;23;20062;-78
2021/10/11 02:55:20;;;;;;;18.60;10.75;;;6.60;99.90;;;;;;6241030;23;20067;-77
2021/10/11 02:57:46;;;;;;;15.00;10.07;;;6.60;99.90;;;;;;6239669;23;20004;-76
2021/10/11 03:00:11;;;;;;;13.68;10.25;;;6.60;99.90;;;;;;6241240;23;20327;-75
2021/10/11 03:02:37;;;;;;;15.52;9.48;;;6.60;99.90;;;;;;6240387;23;20061;-79
2021/10/11 03:05:03;;;;;;;15.25;10.30;;;6.70;99.90;;;;;;6240603;23;20070;-78
2021/10/11 03:07:28;;;;;;;15.98;9.70;;;6.70;99.90;;;;;;6240442;23;20005;-77
2021/10/11 03:09:54;;;;;;;16.38;10.35;;;6.60;99.90;;;;;;6240390;23;20336;-76
2021/10/11 03:12:19;;;;;;;15.50;10.27;;;6.60;99.90;;;;;;6238638;23;20000;-77
2021/10/11 03:14:44;;;;;;;15.15;9.90;;;6.70;99.90;;;;;;6240924;23;20011;-77
2021/10/11 03:17:10;;;;;;;16.92;10.63;;;6.60;99.90;;;;;;6239909;23;20012;-76
2021/10/11 03:19:36;;;;;;;15.63;9.95;;;6.70;99.90;;;;;;6239896;23;20000;-77
2021/10/11 03:22:01;;;;;;;13.57;9.30;;;6.70;99.90;;;;;;6240359;23;20008;-77
2021/10/11 03:24:27;;;;;;;17.38;9.55;;;6.80;99.90;;;;;;6239793;23;20062;-76
2021/10/11 03:26:52;;;;;;;16.48;9.68;;;6.80;99.90;;;;;;6240101;23;20033;-76
2021/10/11 03:29:18;;;;;;;12.90;9.55;;;6.70;99.90;;;;;;6238598;23;20004;-78
2021/10/11 03:31:44;;;;;;;14.73;9.65;;;6.80;99.90;;;;;;6240100;23;19997;-76
2021/10/11 03:34:11;;;;;;;12.45;8.50;;;6.80;99.90;;;;;;6242792;23;20000;-78
2021/10/11 03:36:38;;;;;;;15.02;9.25;;;6.80;99.90;;;;;;6241909;23;20326;-78
2021/10/11 03:39:04;;;;;;;15.00;9.30;;;6.90;99.90;;;;;;6242051;23;20007;-76
2021/10/11 03:41:29;;;;;;;13.15;9.32;;;6.90;99.90;;;;;;6242764;23;20090;-77
2021/10/11 03:43:55;;;;;;;13.98;9.43;;;6.90;99.90;;;;;;6242092;23;20004;-76
2021/10/11 03:46:20;;;;;;;15.20;9.50;;;7.00;99.90;;;;;;6242516;23;20003;-77
2021/10/11 03:48:46;;;;;;;13.73;9.68;;;7.00;99.90;;;;;;6241545;23;20075;-77
2021/10/11 03:51:11;;;;;;;13.95;9.60;;;7.00;99.90;;;;;;6241698;23;20004;-77
2021/10/11 03:53:38;;;;;;;15.00;10.02;;;7.00;99.90;;;;;;6240829;23;20347;-78
2021/10/11 03:56:03;;;;;;;18.70;9.32;;;7.00;99.90;;;;;;6242628;22;20004;-76
2021/10/11 03:58:29;;;;;;;12.32;8.80;;;7.00;99.90;;;;;;6241559;23;20058;-77
2021/10/11 04:00:54;;;;;;;14.15;9.07;;;7.00;99.90;;;;;;6242231;23;20000;-79
2021/10/11 04:03:20;;;;;;;12.13;7.93;;;7.10;99.90;;;;;;6241929;23;20319;-79
2021/10/11 04:05:45;;;;;;;14.13;9.25;;;7.10;99.90;;;;;;6242607;23;19996;-78
2021/10/11 04:08:17;;;;;;;13.27;8.90;;;7.10;99.90;;;;;;6241591;23;20415;-78
2021/10/11 04:10:58;;;;;;;10.38;6.50;;;7.10;99.90;;;;;;6242468;23;20063;-77
2021/10/11 04:13:24;;;;;;;19.08;9.25;;;7.10;99.90;;;;;;6241430;23;20054;-77
2021/10/11 04:15:49;;;;;;;17.48;8.57;;;7.10;99.90;;;;;;6240093;23;20012;-77
2021/10/11 04:18:18;;;;;;;11.65;8.43;;;7.10;99.90;;;;;;6237779;23;20003;-79
2021/10/11 04:20:45;;;;;;;13.88;8.80;;;7.20;99.90;;;;;;6237325;23;20392;-76
2021/10/11 04:23:11;;;;;;;12.98;8.48;;;7.20;99.90;;;;;;6238779;23;20061;-79
2021/10/11 04:25:37;;;;;;;11.25;8.52;;;7.30;99.90;;;;;;6238689;23;20008;-76
2021/10/11 04:28:03;;;;;;;13.45;8.25;;;7.30;99.90;;;;;;6237370;23;20074;-77
2021/10/11 04:30:29;;;;;;;14.25;8.50;;;7.40;99.90;;;;;;6239504;23;20004;-76
2021/10/11 04:32:55;;;;;;;11.48;8.15;;;7.40;99.80;;;;;;6235032;23;20437;-78
2021/10/11 04:35:25;;;;;;;12.68;8.77;;;7.40;99.80;;;;;;6230897;23;20004;-76
2021/10/11 04:37:51;;;;;;;13.38;7.82;;;7.50;99.70;;;;;;6235729;23;20618;-78
2021/10/11 04:40:17;;;;;;;12.80;8.07;;;7.50;99.70;;;;;;6237754;23;19996;-76
2021/10/11 04:42:43;;;;;;;15.85;8.70;;;7.50;99.70;;;;;;6236148;23;20062;-77
2021/10/11 04:45:09;;;;;;;11.88;7.82;;;7.50;99.60;;;;;;6237179;23;20012;-77
2021/10/11 04:47:35;;;;;;;12.90;7.55;;;7.50;99.70;;;;;;6236568;23;19996;-76
2021/10/11 04:50:00;;;;;;;11.40;7.47;;;7.50;99.60;;;;;;6236884;23;20004;-76
2021/10/11 04:52:26;;;;;;;15.77;8.77;;;7.60;99.60;;;;;;6238635;23;20423;-78
2021/10/11 04:54:52;;;;;;;16.00;9.43;;;7.60;99.60;;;;;;6236264;23;20035;-77
2021/10/11 04:57:17;;;;;;;14.60;8.32;;;7.60;99.60;;;;;;6238085;23;20007;-78
2021/10/11 04:59:43;;;;;;;17.27;9.00;;;7.60;99.50;;;;;;6236167;23;20688;-77
2021/10/11 05:02:08;;;;;;;11.05;7.80;;;7.60;99.50;;;;;;6238852;23;20597;-78
2021/10/11 05:04:34;;;;;;;11.30;7.18;;;7.60;99.40;;;;;;6237225;23;20000;-78
2021/10/11 05:06:59;;;;;;;9.82;7.72;;;7.60;99.40;;;;;;6238023;23;20008;-76
2021/10/11 05:09:25;;;;;;;13.45;7.25;;;7.60;99.40;;;;;;6235131;23;20011;-80
2021/10/11 05:11:50;;;;;;;12.77;8.05;;;7.60;99.20;;;;;;6234893;23;19997;-80
2021/10/11 05:14:16;;;;;;;12.65;8.75;;;7.70;99.30;;;;;;6234114;23;20339;-79
2021/10/11 05:16:41;;;;;;;13.95;7.88;;;7.70;99.10;;;;;;6238345;23;20079;-76
2021/10/11 05:19:07;;;;;;;11.30;7.30;;;7.70;99.00;;;;;;6237406;23;20408;-77
2021/10/11 05:21:32;;;;;;;13.90;8.05;;;7.70;99.10;;;;;;6237645;23;20315;-76
2021/10/11 05:23:58;;;;;;;13.77;7.93;;;7.60;99.10;;;;;;6237982;23;20012;-78
2021/10/11 05:26:26;;;;;;;11.45;7.18;;;7.70;99.10;;;;;;6237113;23;20015;-79
2021/10/11 05:28:52;;;;;;;16.63;7.72;;;7.70;99.10;;;;;;6237042;23;20751;-77
2021/10/11 05:31:18;;;;;;;12.70;8.10;;;7.60;99.10;;;;;;6235878;23;19996;-78
2021/10/11 05:33:43;;;;;;;12.23;7.93;;;7.70;99.10;;;;;;6235940;23;20011;-77
2021/10/11 05:36:09;;;;;;;11.23;7.15;;;7.70;99.20;;;;;;6236913;23;20079;-78
2021/10/11 05:38:34;;;;;;;12.55;7.70;;;7.70;99.30;;;;;;6237084;23;20623;-78
2021/10/11 05:41:01;;;;;;;11.82;8.07;;;7.70;99.20;;;;;;6236781;23;20398;-77
2021/10/11 05:43:26;;;;;;;16.63;7.25;;;7.80;99.20;;;;;;6236081;23;20011;-76
2021/10/11 05:45:52;;;;;;;11.18;7.15;;;7.90;99.30;;;;;;6236976;23;20335;-78
2021/10/11 05:48:17;;;;;;;10.70;7.75;;;7.90;99.20;;;;;;6236873;23;20004;-77
2021/10/11 05:50:43;;;;;;;11.93;7.47;;;8.00;99.00;;;;;;6237911;23;20015;-77
2021/10/11 05:53:08;;;;;;;13.27;8.27;;;8.00;98.90;;;;;;6235815;23;20426;-78
2021/10/11 05:55:34;;;;;;;16.45;8.32;;;8.00;98.80;;;;;;6237371;23;20077;-78
2021/10/11 05:57:59;;;;;;;10.75;8.27;;;8.00;98.80;;;;;;6237060;23;20104;-76
2021/10/11 06:00:25;;;;;;;12.07;8.32;;;8.10;98.90;;;;;;6238153;23;19999;-76
2021/10/11 06:02:51;;;;;;;13.38;7.68;;;8.10;98.80;;;;;;6237077;23;20004;-77
2021/10/11 06:05:16;;;;;;;14.70;8.38;;;8.10;98.80;;;;;;6237277;23;20434;-77
2021/10/11 06:07:42;;;;;;;11.45;8.18;;;8.10;98.90;;;;;;6236321;23;19996;-75
2021/10/11 06:10:08;;;;;;;11.95;8.38;;;8.10;98.80;;;;;;6238181;23;20650;-76
2021/10/11 06:12:33;;;;;;;16.02;8.63;;;8.10;98.80;;;;;;6238540;23;20008;-75
2021/10/11 06:14:59;;;;;;;14.68;7.65;;;8.20;98.80;;;;;;6238304;23;20008;-78
2021/10/11 06:17:25;;;;;;;13.57;8.95;;;8.20;98.80;;;;;;6238076;23;20004;-77
2021/10/11 06:19:52;;;;;;;12.43;7.55;;;8.20;98.80;;;;;;6237432;23;19996;-75
2021/10/11 06:22:18;;;;;;;17.17;8.40;;;8.30;98.80;;;;;;6238110;23;19996;-76
2021/10/11 06:24:43;;;;;;;12.48;8.10;;;8.30;98.70;;;;;;6237529;23;20008;-77
2021/10/11 06:27:09;;;;;;;12.90;8.00;;;8.40;98.70;;;;;;6236520;23;20135;-77
2021/10/11 06:29:34;;;;;;;16.60;8.43;;;8.40;98.50;;;;;;6237198;23;20015;-77
2021/10/11 06:32:00;;;;;;;14.63;8.90;;;8.50;98.60;;;;;;6238101;23;20067;-76
2021/10/11 06:34:25;;;;;;;12.98;8.85;;;8.50;98.60;;;;;;6235931;23;20109;-78
2021/10/11 06:36:51;;;;;;;11.52;8.05;;;8.50;98.40;;;;;;6238189;23;20019;-79
2021/10/11 06:39:16;;;;;;;10.10;8.02;;;8.50;98.50;;;;;;6238009;23;20000;-79
2021/10/11 06:41:42;;;;;;;15.50;7.50;;;8.50;98.50;;;;;;6236153;23;20083;-77
2021/10/11 06:44:07;;;;;;;19.85;9.35;;;8.60;98.50;;;;;;6236896;23;20435;-79
2021/10/11 06:46:33;;;;;;;15.73;8.65;;;8.60;98.50;;;;;;6236450;23;20024;-77
2021/10/11 06:48:58;;;;;;;15.20;9.48;;;8.70;98.40;;;;;;6237375;23;20004;-78
2021/10/11 06:51:24;;;;;;;15.27;7.88;;;8.70;98.30;;;;;;6236059;23;20525;-79
2021/10/11 06:53:49;;;;;;;15.50;8.80;;;8.70;98.30;;;;;;6237256;23;20012;-76
2021/10/11 06:56:15;;;;;;;12.10;8.13;;;8.80;98.20;;;;;;6236915;23;20004;-78
2021/10/11 06:58:40;;;;;;;11.65;8.73;;;8.90;98.20;;;;;;6235390;23;20327;-78
2021/10/11 07:01:06;;;;;;;15.40;8.05;;;8.90;98.20;;;;;;6236341;23;20238;-77
2021/10/11 07:03:32;;;;;;;11.75;8.32;;;9.00;98.10;;;;;;6237137;23;20004;-77
2021/10/11 07:06:03;;;;;;;11.15;8.10;;;9.10;98.20;;;;;;6237492;22;20073;-76
2021/10/11 07:08:28;;;;;;;11.23;8.07;;;9.20;98.00;;;;;;6236691;23;19996;-78
2021/10/11 07:10:54;;;;;;;11.20;7.88;;;9.20;98.20;;;;;;6237711;23;20058;-78
2021/10/11 07:13:23;;;;;;;23.80;8.95;;;9.30;98.00;;;;;;6235976;23;20722;-78
2021/10/11 07:15:49;;;;;;;12.38;8.38;;;9.40;98.10;;;;;;6236300;23;20020;-76
2021/10/11 07:18:15;;;;;;;12.38;7.82;;;9.50;98.00;;;;;;6236621;23;20035;-78
2021/10/11 07:20:43;;;;;;;12.25;8.02;;;9.60;97.70;;;;;;6237795;23;19996;-78
2021/10/11 07:23:09;;;;;;;13.80;8.93;;;9.70;97.70;;;;;;6236549;23;20435;-76
2021/10/11 07:25:35;;;;;;;15.98;9.05;;;9.80;97.90;;;;;;6237398;23;20012;-75
2021/10/11 07:28:02;;;;;;;22.92;9.00;;;9.90;97.50;;;;;;6236747;23;20012;-76
2021/10/11 07:30:28;;;;;;;17.17;8.65;;;10.00;97.20;;;;;;6237187;23;20289;-76
2021/10/11 07:32:53;;;;;;;14.20;8.32;;;10.10;97.20;;;;;;6236717;23;20367;-78
2021/10/11 07:35:19;;;;;;;13.32;8.98;;;10.20;97.00;;;;;;6236844;23;20034;-76
2021/10/11 07:37:44;;;;;;;12.68;8.43;;;10.20;97.00;;;;;;6234713;23;20427;-78
2021/10/11 07:40:11;;;;;;;14.88;9.65;;;10.30;96.90;;;;;;6237067;23;20010;-76
2021/10/11 07:42:36;;;;;;;14.75;8.57;;;10.40;96.70;;;;;;6236637;23;20008;-77
2021/10/11 07:45:03;;;;;;;17.42;9.30;;;10.40;96.80;;;;;;6237044;23;20057;-76
2021/10/11 07:47:28;;;;;;;16.10;9.98;;;10.50;96.70;;;;;;6237381;23;20423;-77
2021/10/11 07:49:54;;;;;;;14.82;9.00;;;10.50;96.60;;;;;;6236952;23;20091;-78
2021/10/11 07:52:19;;;;;;;17.42;10.40;;;10.60;96.70;;;;;;6234579;23;20035;-77
2021/10/11 07:54:45;;;;;;;15.27;10.35;;;10.60;96.70;;;;;;6236187;23;20062;-77
2021/10/11 07:57:10;;;;;;;14.82;11.00;;;10.60;96.50;;;;;;6236544;23;20012;-78
2021/10/11 07:59:36;;;;;;;16.35;9.77;;;10.60;96.70;;;;;;6237116;23;20027;-78
2021/10/11 08:02:01;;;;;;;16.58;11.00;;;10.70;96.60;;;;;;6237374;23;20003;-77
2021/10/11 08:04:27;;;;;;;16.27;9.85;;;10.80;96.80;;;;;;6237017;23;20013;-76
2021/10/11 08:06:52;;;;;;;14.38;9.80;;;10.90;96.80;;;;;;6236659;23;20008;-75
2021/10/11 08:09:18;;;;;;;20.42;12.43;;;11.00;96.30;;;;;;6234220;23;20000;-76
2021/10/11 08:11:44;;;;;;;13.27;9.73;;;11.00;96.20;;;;;;6234596;23;20000;-78
2021/10/11 08:14:10;;;;;;;21.52;12.05;;;11.00;96.50;;;;;;6235160;23;20008;-75
2021/10/11 08:16:38;;;;;;;17.15;11.30;;;11.10;96.40;;;;;;6235742;23;20012;-75
2021/10/11 08:19:03;;;;;;;24.55;12.00;;;11.10;96.40;;;;;;6234898;22;20439;-78
2021/10/11 08:21:29;;;;;;;17.88;11.27;;;11.20;96.30;;;;;;6237185;22;20045;-77
2021/10/11 08:23:56;;;;;;;18.65;12.00;;;11.20;96.00;;;;;;6238855;23;20040;-76
2021/10/11 08:26:22;;;;;;;18.27;11.60;;;11.10;96.20;;;;;;6236008;22;20027;-77
2021/10/11 08:28:47;;;;;;;17.90;11.77;;;11.10;96.20;;;;;;6237473;23;20091;-78
2021/10/11 08:31:13;;;;;;;21.88;12.48;;;11.20;96.10;;;;;;6237816;22;20055;-77
2021/10/11 08:33:40;;;;;;;18.05;11.73;;;11.10;96.20;;;;;;6236592;23;20008;-77
2021/10/11 08:36:05;;;;;;;16.85;12.50;;;11.00;96.30;;;;;;6233680;22;20373;-78
2021/10/11 08:38:32;;;;;;;15.90;11.13;;;11.10;96.50;;;;;;6234033;23;20430;-77
2021/10/11 08:40:59;;;;;;;20.50;11.85;;;11.00;96.50;;;;;;6235745;22;20000;-80
2021/10/11 08:43:24;;;;;;;20.83;11.95;;;11.00;96.40;;;;;;6237750;22;20008;-78
2021/10/11 08:45:51;;;;;;;20.77;12.20;;;11.10;96.40;;;;;;6236478;23;20004;-77
2021/10/11 08:48:17;;;;;;;22.42;12.85;;;11.00;96.70;;;;;;6235663;22;20083;-78
2021/10/11 08:50:43;;;;;;;17.23;11.38;;;10.90;96.70;;;;;;6237288;23;20390;-79
2021/10/11 08:53:09;;;;;;;24.00;12.68;;;11.00;96.90;;;;;;6236776;23;20004;-79
2021/10/11 08:55:35;;;;;;;20.92;12.80;;;10.90;96.90;;;;;;6236038;22;20014;-80
2021/10/11 08:58:03;;;;;;;21.15;12.32;;;11.00;97.10;;;;;;6235941;23;20082;-78
2021/10/11 09:00:33;;;;;;;21.65;13.35;;;11.00;97.20;;;;;;6236362;22;20078;-79
2021/10/11 09:03:01;;;;;;;22.35;13.57;;;11.00;97.60;;;;;;6236851;23;20772;-79
2021/10/11 09:05:36;;;;;;;19.67;13.40;;;11.00;97.80;;;;;;6260231;22;20427;-79
2021/10/11 09:08:16;;;;;;;19.08;13.82;;;11.00;98.20;;;;;;6235687;23;20485;-80
2021/10/11 09:10:53;;;;;;;21.52;14.23;;;11.00;98.60;;;;;;6232984;23;20000;-79
2021/10/11 09:13:21;;;;;;;25.27;15.52;;;10.90;98.90;;;;;;6235631;23;20087;-79
2021/10/11 09:15:51;;;;;;;24.58;14.57;;;10.90;99.30;;;;;;6234360;23;20817;-81
2021/10/11 09:18:28;;;;;;;24.30;15.80;;;10.90;99.80;;;;;;6235882;22;20071;-78
2021/10/11 09:20:53;;;;;;;23.85;14.43;;;10.90;99.90;;;;;;6233492;23;20000;-78
2021/10/11 09:23:20;;;;;;;21.42;14.95;;;10.90;99.90;;;;;;6238135;23;20007;-77
2021/10/11 09:25:45;;;;;;;26.48;15.68;;;10.90;99.90;;;;;;6232800;22;20000;-76
2021/10/11 09:28:16;;;;;;;26.73;17.30;;;11.00;99.90;;;;;;6236625;23;20016;-77
2021/10/11 09:30:45;;;;;;;28.60;16.35;;;10.90;99.90;;;;;;6235681;23;19996;-77
2021/10/11 09:33:14;;;;;;;29.05;17.52;;;10.90;99.90;;;;;;6234963;22;20610;-78
2021/10/11 09:35:41;;;;;;;27.73;17.55;;;10.90;99.90;;;;;;6236742;23;20015;-78
2021/10/11 09:38:27;;;;;;;28.65;18.13;;;10.90;99.90;;;;;;6237838;22;20053;-78
2021/10/11 09:40:58;;;;;;;30.60;17.33;;;10.80;99.90;;;;;;6237045;22;20004;-78
2021/10/11 09:43:29;;;;;;;32.25;19.23;;;10.70;99.90;;;;;;6236432;23;20007;-78
2021/10/11 09:45:55;;;;;;;33.50;19.63;;;10.70;99.90;;;;;;6259978;22;20394;-77
2021/10/11 09:48:22;;;;;;;35.00;19.38;;;10.70;99.90;;;;;;6236675;23;20080;-76
2021/10/11 09:50:48;;;;;;;34.28;21.17;;;10.70;99.90;;;;;;6237520;22;20004;-76
2021/10/11 09:53:16;;;;;;;35.30;22.10;;;10.70;99.90;;;;;;6238030;23;19997;-77
2021/10/11 09:55:44;;;;;;;37.63;21.52;;;10.80;99.90;;;;;;6236259;23;20040;-76
2021/10/11 09:58:10;;;;;;;35.60;21.15;;;10.80;99.90;;;;;;6233559;23;20309;-76
2021/10/11 10:00:38;;;;;;;37.97;22.80;;;10.80;99.90;;;;;;6236336;22;20000;-76
2021/10/11 10:03:03;;;;;;;35.85;21.42;;;10.80;99.90;;;;;;6234311;23;20004;-76
2021/10/11 10:05:41;;;;;;;38.35;21.88;;;10.80;99.90;;;;;;6233475;23;20343;-76
2021/10/11 10:08:13;;;;;;;36.67;21.15;;;10.80;99.90;;;;;;6233711;22;19996;-77
2021/10/11 10:10:40;;;;;;;40.30;22.85;;;10.90;99.90;;;;;;6235116;23;20636;-76
2021/10/11 10:13:18;;;;;;;43.33;23.17;;;10.90;99.90;;;;;;6235629;23;20000;-76
2021/10/11 10:15:43;;;;;;;42.25;23.38;;;10.90;99.90;;;;;;6233984;22;20000;-77
2021/10/11 10:18:12;;;;;;;36.28;23.30;;;10.90;99.90;;;;;;6232869;23;20012;-77
2021/10/11 10:20:50;;;;;;;39.10;22.67;;;10.90;99.90;;;;;;6235410;23;19996;-77
2021/10/11 10:23:54;;;;;;;42.15;23.90;;;11.00;99.90;;;;;;6236739;22;20008;-77
2021/10/11 10:26:33;;;;;;;36.90;22.08;;;11.10;99.90;;;;;;6220245;22;20016;-77
2021/10/11 10:29:00;;;;;;;37.97;22.00;;;11.10;99.90;;;;;;6234635;22;20011;-77
2021/10/11 10:31:30;;;;;;;38.08;22.80;;;11.10;99.90;;;;;;6234921;22;20007;-77
2021/10/11 10:33:56;;;;;;;42.13;22.77;;;11.10;99.90;;;;;;6233621;23;20094;-77
2021/10/11 10:36:24;;;;;;;42.13;23.52;;;11.10;99.90;;;;;;6234754;23;20039;-77
2021/10/11 10:39:03;;;;;;;38.92;23.08;;;11.20;99.90;;;;;;6232354;23;20016;-78
2021/10/11 10:41:30;;;;;;;40.60;23.10;;;11.30;99.90;;;;;;6234420;23;20008;-76
2021/10/11 10:43:56;;;;;;;39.40;24.08;;;11.30;99.90;;;;;;6236070;22;20004;-78
2021/10/11 10:46:22;;;;;;;42.22;24.55;;;11.30;99.90;;;;;;6235433;23;20007;-77
2021/10/11 10:48:50;;;;;;;37.25;21.05;;;11.30;99.90;;;;;;6233789;23;20070;-78
2021/10/11 10:51:16;;;;;;;42.53;24.00;;;11.40;99.90;;;;;;6234957;23;20008;-78
2021/10/11 10:53:54;;;;;;;36.67;21.45;;;11.40;99.90;;;;;;6234836;22;20619;-79
2021/10/11 10:56:20;;;;;;;40.15;23.10;;;11.50;99.90;;;;;;6234572;23;20485;-79
2021/10/11 10:58:47;;;;;;;34.95;20.77;;;11.50;99.90;;;;;;6234785;23;20000;-79
2021/10/11 11:01:13;;;;;;;34.33;21.67;;;11.60;99.90;;;;;;6235141;22;20556;-77
2021/10/11 11:03:39;;;;;;;33.95;21.30;;;11.60;99.90;;;;;;6236195;22;20560;-79
2021/10/11 11:06:06;;;;;;;35.38;22.35;;;11.70;99.90;;;;;;6235499;22;20057;-77
2021/10/11 11:08:32;;;;;;;33.88;20.55;;;11.80;99.90;;;;;;6234159;22;20007;-77
2021/10/11 11:11:03;;;;;;;37.13;22.33;;;11.90;99.90;;;;;;6232089;23;20008;-78
2021/10/11 11:13:28;;;;;;;36.80;19.38;;;12.00;99.90;;;;;;6236109;23;19996;-78
2021/10/11 11:15:54;;;;;;;31.42;20.63;;;12.00;99.90;;;;;;6234585;23;20027;-78
2021/10/11 11:18:26;;;;;;;40.15;19.95;;;12.10;99.90;;;;;;6256666;22;20119;-78
2021/10/11 11:20:54;;;;;;;30.63;20.83;;;12.10;99.90;;;;;;6237101;23;20066;-77
2021/10/11 11:23:23;;;;;;;31.83;19.63;;;12.20;99.90;;;;;;6238082;23;20020;-78
2021/10/11 11:25:57;;;;;;;31.85;20.02;;;12.30;99.90;;;;;;6236411;22;20014;-78
2021/10/11 11:28:25;;;;;;;29.70;18.58;;;12.40;99.90;;;;;;6237053;23;20020;-79
2021/10/11 11:30:55;;;;;;;33.83;20.17;;;12.50;99.90;;;;;;6237611;22;20459;-76
2021/10/11 11:33:22;;;;;;;31.45;19.08;;;12.50;99.90;;;;;;6237285;22;20004;-77
2021/10/11 11:35:51;;;;;;;29.75;18.88;;;12.50;99.90;;;;;;6260591;22;20012;-78
2021/10/11 11:38:19;;;;;;;32.22;18.42;;;12.60;99.90;;;;;;6235956;22;20010;-78
2021/10/11 11:41:06;;;;;;;30.60;18.65;;;12.60;99.90;;;;;;6260718;22;20011;-79
2021/10/11 11:43:35;;;;;;;32.90;18.38;;;12.60;99.90;;;;;;6237330;23;20007;-78
2021/10/11 11:46:02;;;;;;;30.38;18.50;;;12.60;99.90;;;;;;6236787;22;20007;-76
2021/10/11 11:48:33;;;;;;;29.00;18.13;;;12.60;99.90;;;;;;6236602;23;19999;-77
2021/10/11 11:51:05;;;;;;;29.20;18.23;;;12.60;99.90;;;;;;6237147;22;20559;-80
2021/10/11 11:53:33;;;;;;;32.28;18.05;;;12.70;99.90;;;;;;6237671;23;20004;-76
2021/10/11 11:56:00;;;;;;;23.05;15.68;;;12.80;99.90;;;;;;6239857;23;20038;-76
2021/10/11 11:58:31;;;;;;;29.65;16.38;;;12.80;99.90;;;;;;6238137;23;20005;-80
2021/10/11 12:01:00;;;;;;;23.95;16.35;;;12.90;99.90;;;;;;6238932;23;20040;-80
2021/10/11 12:03:29;;;;;;;28.15;15.70;;;13.00;99.90;;;;;;6239601;23;20427;-79
2021/10/11 12:05:57;;;;;;;29.75;17.20;;;13.10;99.90;;;;;;6239291;23;20040;-77
2021/10/11 12:08:23;;;;;;;27.00;14.38;;;13.20;99.90;;;;;;6237030;23;20081;-75
2021/10/11 12:11:01;;;;;;;25.33;15.38;;;13.30;99.90;;;;;;6260084;22;20342;-77
2021/10/11 12:13:29;;;;;;;24.27;13.25;;;13.40;99.90;;;;;;6238817;23;20080;-75
2021/10/11 12:16:03;;;;;;;24.52;14.20;;;13.50;99.70;;;;;;6237911;22;20039;-80
2021/10/11 12:18:35;;;;;;;21.38;13.77;;;13.60;99.50;;;;;;6237713;23;20541;-79
2021/10/11 12:21:01;;;;;;;;;;;13.70;99.20;;;;;;6238436;23;20018;-77
2021/10/11 12:23:39;;;;;;;22.52;13.80;;;13.80;99.30;;;;;;6237612;23;20322;-80
2021/10/11 12:26:06;;;;;;;22.08;13.15;;;13.90;99.30;;;;;;6237894;23;20004;-80
2021/10/11 12:28:31;;;;;;;23.08;12.57;;;13.90;98.90;;;;;;6237091;23;20032;-79
2021/10/11 12:31:05;;;;;;;21.17;12.15;;;13.90;98.60;;;;;;6238406;23;20007;-75
2021/10/11 12:33:39;;;;;;;21.30;11.98;;;14.00;98.70;;;;;;6239326;22;20048;-74
2021/10/11 12:36:06;;;;;;;21.25;12.73;;;14.00;98.90;;;;;;6239007;22;20570;-75